createdAt,value
2022-09-12T00:00:12.162Z,99646.84
2022-09-12T00:00:24.202Z,99650.28
2022-09-12T00:00:36.114Z,99656.31
2022-09-12T00:00:48.079Z,99655.47
2022-09-12T00:01:09.277Z,99654.59
2022-09-12T00:01:25.446Z,99654.59
2022-09-12T00:01:37.465Z,99657.47
2022-09-12T00:01:49.483Z,99645.13
2022-09-12T00:02:01.456Z,99646.06
2022-09-12T00:02:13.482Z,99652.91
2022-09-12T00:02:25.587Z,99654.59
2022-09-12T00:02:37.562Z,99648.50
2022-09-12T00:02:53.900Z,99645.81
2022-09-12T00:03:05.817Z,99646.75
2022-09-12T00:03:17.724Z,99643.22
2022-09-12T00:03:29.629Z,99651.81
2022-09-12T00:03:42.287Z,99650.88
2022-09-12T00:03:56.648Z,99649.97
2022-09-12T00:04:10.941Z,99642.13
2022-09-12T00:04:23.130Z,99649.06
2022-09-12T00:04:35.128Z,99644.66
2022-09-12T00:04:47.201Z,99648.13
2022-09-12T00:05:00.221Z,99641.97
2022-09-12T00:05:12.684Z,99645.50
2022-09-12T00:05:28.520Z,99648.88
2022-09-12T00:05:42.431Z,99654.97
2022-09-12T00:05:54.319Z,99647.34
2022-09-12T00:06:30.603Z,99642.88
2022-09-12T00:06:42.595Z,99646.34
2022-09-12T00:06:54.521Z,99642.88
2022-09-12T00:07:06.469Z,99645.50
2022-09-12T00:07:18.360Z,99643.81
2022-09-12T00:07:30.277Z,99638.59
2022-09-12T00:07:42.196Z,99642.13
2022-09-12T00:07:54.244Z,99644.72
2022-09-12T00:08:06.172Z,99644.72
2022-09-12T00:08:18.070Z,99640.41
2022-09-12T00:08:29.945Z,99641.28
2022-09-12T00:08:41.887Z,99642.13
2022-09-12T00:08:55.209Z,99639.50
2022-09-12T00:09:10.863Z,99635.97
2022-09-12T00:09:22.772Z,99635.16
2022-09-12T00:09:34.656Z,99647.34
2022-09-12T00:09:46.602Z,99639.50
2022-09-12T00:09:58.521Z,99642.94
2022-09-12T00:10:10.431Z,99643.81
2022-09-12T00:10:22.525Z,99641.19
2022-09-12T00:10:39.004Z,99640.41
2022-09-12T00:10:50.921Z,99638.72
2022-09-12T00:11:07.984Z,99639.50
2022-09-12T00:11:19.998Z,99635.16
2022-09-12T00:11:32.048Z,99638.72
2022-09-12T00:11:45.986Z,99643.13
2022-09-12T00:11:57.865Z,99638.72
2022-09-12T00:12:09.771Z,99636.94
2022-09-12T00:12:21.660Z,99636.03
2022-09-12T00:12:33.602Z,99638.59
2022-09-12T00:12:45.688Z,99641.09
2022-09-12T00:12:57.602Z,99633.34
2022-09-12T00:13:10.672Z,99641.09
2022-09-12T00:13:22.627Z,99640.25
2022-09-12T00:13:38.390Z,99641.19
2022-09-12T00:14:00.433Z,99637.03
2022-09-12T00:14:15.778Z,99645.66
2022-09-12T00:14:27.676Z,99642.25
2022-09-12T00:14:39.596Z,99637.91
2022-09-12T00:14:51.535Z,99637.91
2022-09-12T00:15:04.182Z,99638.72
2022-09-12T00:15:16.064Z,99643.97
2022-09-12T00:15:27.974Z,99640.41
2022-09-12T00:15:41.381Z,99635.16
2022-09-12T00:15:53.272Z,99642.13
2022-09-12T00:16:05.673Z,99642.13
2022-09-12T00:16:25.205Z,99644.13
2022-09-12T00:16:37.979Z,99638.88
2022-09-12T00:16:49.963Z,99649.47
2022-09-12T00:17:02.382Z,99638.03
2022-09-12T00:17:14.578Z,99641.44
2022-09-12T00:17:26.520Z,99646.66
2022-09-12T00:17:39.399Z,99641.44
2022-09-12T00:17:51.323Z,99643.13
2022-09-12T00:18:03.313Z,99641.56
2022-09-12T00:18:17.019Z,99639.84
2022-09-12T00:18:28.927Z,99643.41
2022-09-12T00:18:40.810Z,99647.63
2022-09-12T00:18:53.654Z,99637.00
2022-09-12T00:19:06.739Z,99642.91
2022-09-12T00:19:18.993Z,99638.44
2022-09-12T00:19:30.863Z,99639.38
2022-09-12T00:19:42.942Z,99641.81
2022-09-12T00:19:55.768Z,99647.00
2022-09-12T00:20:09.962Z,99645.91
2022-09-12T00:20:21.886Z,99647.50
2022-09-12T00:20:33.836Z,99638.72
2022-09-12T00:20:47.263Z,99642.13
2022-09-12T00:21:04.640Z,99642.19
2022-09-12T00:21:18.447Z,99640.34
2022-09-12T00:21:32.483Z,99639.41
2022-09-12T00:21:44.792Z,99643.63
2022-09-12T00:21:56.773Z,99643.63
2022-09-12T00:22:08.742Z,99634.88
2022-09-12T00:22:20.653Z,99644.41
2022-09-12T00:22:32.573Z,99644.47
2022-09-12T00:22:44.562Z,99641.97
2022-09-12T00:22:56.532Z,99643.63
2022-09-12T00:23:08.509Z,99642.81
2022-09-12T00:23:20.459Z,99638.41
2022-09-12T00:23:33.136Z,99643.63
2022-09-12T00:23:45.670Z,99646.25
2022-09-12T00:23:57.928Z,99645.34
2022-09-12T00:24:11.247Z,99637.38
2022-09-12T00:24:23.237Z,99641.78
2022-09-12T00:24:35.157Z,99639.94
2022-09-12T00:24:47.108Z,99639.94
2022-09-12T00:24:59.024Z,99642.63
2022-09-12T00:25:11.115Z,99645.34
2022-09-12T00:25:23.039Z,99640.09
2022-09-12T00:25:34.969Z,99634.88
2022-09-12T00:25:48.401Z,99641.03
2022-09-12T00:26:00.354Z,99637.50
2022-09-12T00:26:13.143Z,99633.00
2022-09-12T00:26:25.115Z,99638.25
2022-09-12T00:26:37.176Z,99634.69
2022-09-12T00:26:49.247Z,99636.41
2022-09-12T00:27:01.157Z,99636.28
2022-09-12T00:27:13.023Z,99639.78
2022-09-12T00:27:24.921Z,99640.69
2022-09-12T00:27:36.818Z,99643.31
2022-09-12T00:27:48.716Z,99634.69
2022-09-12T00:28:00.648Z,99637.31
2022-09-12T00:28:14.501Z,99643.50
2022-09-12T00:28:26.985Z,99639.94
2022-09-12T00:28:40.807Z,99639.03
2022-09-12T00:28:52.966Z,99637.31
2022-09-12T00:29:04.863Z,99640.09
2022-09-12T00:29:19.638Z,99636.53
2022-09-12T00:29:31.663Z,99640.00
2022-09-12T00:29:43.581Z,99640.88
2022-09-12T00:29:55.510Z,99637.50
2022-09-12T00:30:07.911Z,99641.84
2022-09-12T00:30:19.806Z,99638.41
2022-09-12T00:30:31.894Z,99637.56
2022-09-12T00:30:48.242Z,99632.31
2022-09-12T00:31:00.331Z,99633.16
2022-09-12T00:31:16.148Z,99634.88
2022-09-12T00:31:28.494Z,99636.81
2022-09-12T00:31:40.484Z,99636.88
2022-09-12T00:31:52.501Z,99640.25
2022-09-12T00:32:04.736Z,99633.34
2022-09-12T00:32:16.737Z,99639.41
2022-09-12T00:32:28.745Z,99634.19
2022-09-12T00:32:40.656Z,99636.81
2022-09-12T00:32:54.646Z,99637.63
2022-09-12T00:33:06.527Z,99641.97
2022-09-12T00:33:18.508Z,99636.72
2022-09-12T00:33:30.936Z,99638.59
2022-09-12T00:33:43.639Z,99635.03
2022-09-12T00:33:58.665Z,99635.84
2022-09-12T00:34:11.056Z,99638.47
2022-09-12T00:34:22.976Z,99641.09
2022-09-12T00:34:36.052Z,99634.19
2022-09-12T00:34:47.959Z,99635.97
2022-09-12T00:35:00.779Z,99634.09
2022-09-12T00:35:12.916Z,99635.84
2022-09-12T00:35:24.794Z,99641.09
2022-09-12T00:35:50.020Z,99642.81
2022-09-12T00:36:15.162Z,99638.41
2022-09-12T00:36:29.253Z,99640.88
2022-09-12T00:36:41.405Z,99635.63
2022-09-12T00:36:53.318Z,99633.78
2022-09-12T00:37:05.208Z,99633.34
2022-09-12T00:37:17.622Z,99635.78
2022-09-12T00:37:29.606Z,99629.63
2022-09-12T00:37:41.760Z,99627.91
2022-09-12T00:37:53.660Z,99637.50
2022-09-12T00:38:05.542Z,99638.41
2022-09-12T00:38:17.476Z,99636.63
2022-09-12T00:38:29.408Z,99633.16
2022-09-12T00:38:42.655Z,99630.53
2022-09-12T00:38:54.817Z,99635.78
2022-09-12T00:39:07.732Z,99635.03
2022-09-12T00:39:19.735Z,99633.34
2022-09-12T00:39:31.647Z,99635.16
2022-09-12T00:39:43.638Z,99637.72
2022-09-12T00:39:55.558Z,99632.41
2022-09-12T00:40:07.949Z,99635.03
2022-09-12T00:40:19.864Z,99637.56
2022-09-12T00:40:31.739Z,99634.00
2022-09-12T00:40:44.668Z,99633.09
2022-09-12T00:40:56.539Z,99635.72
2022-09-12T00:41:16.953Z,99637.38
2022-09-12T00:41:34.453Z,99626.91
2022-09-12T00:41:46.507Z,99637.31
2022-09-12T00:41:58.693Z,99630.41
2022-09-12T00:42:12.682Z,99628.53
2022-09-12T00:42:24.546Z,99634.00
2022-09-12T00:42:36.411Z,99629.63
2022-09-12T00:42:48.272Z,99634.88
2022-09-12T00:43:00.138Z,99637.38
2022-09-12T00:43:13.859Z,99634.69
2022-09-12T00:43:43.592Z,99631.31
2022-09-12T00:44:01.276Z,99634.19
2022-09-12T00:44:13.194Z,99641.84
2022-09-12T00:44:25.032Z,99627.91
2022-09-12T00:44:36.899Z,99633.34
2022-09-12T00:44:51.608Z,99631.50
2022-09-12T00:45:03.843Z,99634.00
2022-09-12T00:45:24.308Z,99634.00
2022-09-12T00:45:36.283Z,99631.31
2022-09-12T00:45:48.219Z,99631.31
2022-09-12T00:46:04.661Z,99633.00
2022-09-12T00:46:29.135Z,99636.41
2022-09-12T00:46:56.728Z,99634.53
2022-09-12T00:47:11.588Z,99630.97
2022-09-12T00:47:34.317Z,99627.44
2022-09-12T00:47:46.415Z,99627.44
2022-09-12T00:48:03.549Z,99634.34
2022-09-12T00:48:26.670Z,99632.56
2022-09-12T00:48:43.954Z,99625.59
2022-09-12T00:49:00.709Z,99621.19
2022-09-12T00:49:19.545Z,99623.72
2022-09-12T00:49:51.674Z,99627.25
2022-09-12T00:50:13.833Z,99622.03
2022-09-12T00:50:25.910Z,99629.13
2022-09-12T00:50:37.798Z,99627.34
2022-09-12T00:50:50.105Z,99624.63
2022-09-12T00:51:02.145Z,99622.03
2022-09-12T00:51:14.886Z,99624.63
2022-09-12T00:51:30.412Z,99622.03
2022-09-12T00:51:55.390Z,99625.59
2022-09-12T00:52:09.704Z,99623.88
2022-09-12T00:52:44.732Z,99625.59
2022-09-12T00:53:07.032Z,99622.97
2022-09-12T00:53:19.007Z,99623.88
2022-09-12T00:53:31.332Z,99618.81
2022-09-12T00:53:47.696Z,99625.91
2022-09-12T00:54:02.632Z,99619.72
2022-09-12T00:54:20.821Z,99625.47
2022-09-12T00:54:39.066Z,99620.66
2022-09-12T00:54:57.019Z,99623.34
2022-09-12T00:55:24.286Z,99617.94
2022-09-12T00:55:40.943Z,99623.00
2022-09-12T00:55:53.825Z,99615.09
2022-09-12T00:56:06.325Z,99621.16
2022-09-12T00:56:19.755Z,99618.44
2022-09-12T00:56:32.586Z,99617.34
2022-09-12T00:56:46.853Z,99619.44
2022-09-12T00:57:03.817Z,99621.88
2022-09-12T00:57:18.067Z,99616.56
2022-09-12T00:57:34.668Z,99615.47
2022-09-12T00:57:49.200Z,99615.31
2022-09-12T00:58:14.570Z,99617.78
2022-09-12T00:58:34.451Z,99616.41
2022-09-12T00:58:57.819Z,99618.94
2022-09-12T00:59:15.232Z,99613.56
2022-09-12T00:59:36.723Z,99619.63
2022-09-12T00:59:57.524Z,99627.41
2022-09-12T01:00:16.312Z,99620.41
2022-09-12T01:00:29.408Z,99623.00
2022-09-12T01:00:41.622Z,99616.94
2022-09-12T01:00:54.011Z,99623.34
2022-09-12T01:01:06.415Z,99619.97
2022-09-12T01:01:19.263Z,99625.88
2022-09-12T01:01:32.791Z,99615.41
2022-09-12T01:01:48.417Z,99619.63
2022-09-12T01:02:01.087Z,99617.00
2022-09-12T01:02:13.182Z,99614.41
2022-09-12T01:02:26.451Z,99617.78
2022-09-12T01:02:38.523Z,99618.69
2022-09-12T01:02:56.602Z,99616.06
2022-09-12T01:03:14.598Z,99620.31
2022-09-12T01:03:26.970Z,99610.69
2022-09-12T01:03:38.939Z,99614.06
2022-09-12T01:03:51.153Z,99610.44
2022-09-12T01:04:03.728Z,99617.44
2022-09-12T01:04:17.212Z,99620.81
2022-09-12T01:04:30.398Z,99611.28
2022-09-12T01:04:44.525Z,99612.22
2022-09-12T01:04:56.579Z,99617.63
2022-09-12T01:05:09.152Z,99614.06
2022-09-12T01:05:23.616Z,99617.63
2022-09-12T01:05:39.933Z,99615.09
2022-09-12T01:06:14.090Z,99616.94
2022-09-12T01:06:28.921Z,99615.22
2022-09-12T01:06:44.959Z,99620.31
2022-09-12T01:06:58.344Z,99623.84
2022-09-12T01:07:11.574Z,99616.06
2022-09-12T01:07:23.918Z,99617.00
2022-09-12T01:07:40.009Z,99623.16
2022-09-12T01:07:53.052Z,99619.97
2022-09-12T01:08:06.256Z,99617.25
2022-09-12T01:08:18.640Z,99617.16
2022-09-12T01:08:32.208Z,99613.63
2022-09-12T01:08:46.794Z,99614.41
2022-09-12T01:08:59.695Z,99615.88
2022-09-12T01:09:16.901Z,99613.34
2022-09-12T01:09:31.631Z,99612.50
2022-09-12T01:09:45.810Z,99608.97
2022-09-12T01:09:57.907Z,99609.75
2022-09-12T01:10:10.940Z,99613.19
2022-09-12T01:10:24.280Z,99615.56
2022-09-12T01:10:38.807Z,99610.31
2022-09-12T01:10:50.867Z,99611.00
2022-09-12T01:11:04.326Z,99611.00
2022-09-12T01:11:16.733Z,99611.00
2022-09-12T01:11:28.779Z,99607.28
2022-09-12T01:11:41.263Z,99607.28
2022-09-12T01:11:53.612Z,99610.69
2022-09-12T01:12:06.097Z,99607.16
2022-09-12T01:12:18.105Z,99612.38
2022-09-12T01:12:31.248Z,99605.44
2022-09-12T01:12:44.130Z,99608.81
2022-09-12T01:12:56.048Z,99610.81
2022-09-12T01:13:10.076Z,99606.34
2022-09-12T01:13:22.483Z,99606.34
2022-09-12T01:13:35.667Z,99609.91
2022-09-12T01:13:48.528Z,99609.63
2022-09-12T01:14:00.664Z,99604.31
2022-09-12T01:14:13.766Z,99606.09
2022-09-12T01:14:25.783Z,99606.88
2022-09-12T01:14:38.803Z,99603.22
2022-09-12T01:14:50.710Z,99606.59
2022-09-12T01:15:02.781Z,99604.00
2022-09-12T01:15:15.061Z,99601.00
2022-09-12T01:15:27.103Z,99604.38
2022-09-12T01:15:40.340Z,99608.09
2022-09-12T01:15:52.651Z,99605.03
2022-09-12T01:16:06.268Z,99605.03
2022-09-12T01:16:18.387Z,99600.41
2022-09-12T01:16:30.779Z,99599.81
2022-09-12T01:16:43.652Z,99599.81
2022-09-12T01:16:55.901Z,99602.22
2022-09-12T01:17:12.005Z,99601.19
2022-09-12T01:17:28.768Z,99607.19
2022-09-12T01:18:07.714Z,99600.09
2022-09-12T01:18:32.494Z,99602.97
2022-09-12T01:18:50.319Z,99603.19
2022-09-12T01:19:17.780Z,99603.28
2022-09-12T01:19:31.715Z,99601.50
2022-09-12T01:19:46.256Z,99607.50
2022-09-12T01:20:29.351Z,99602.09
2022-09-12T01:21:02.818Z,99595.25
2022-09-12T01:21:25.561Z,99598.97
2022-09-12T01:21:55.557Z,99594.75
2022-09-12T01:22:33.703Z,99600.13
2022-09-12T01:22:54.448Z,99597.25
2022-09-12T01:23:33.058Z,99593.66
2022-09-12T01:24:12.427Z,99595.59
2022-09-12T01:24:54.404Z,99595.66
2022-09-12T01:25:31.042Z,99593.38
2022-09-12T01:26:19.995Z,99597.06
2022-09-12T01:26:49.847Z,99592.00
2022-09-12T01:27:16.583Z,99591.84
2022-09-12T01:27:34.293Z,99600.38
2022-09-12T01:28:01.163Z,99604.00
2022-09-12T01:28:25.167Z,99595.16
2022-09-12T01:28:51.958Z,99597.63
2022-09-12T01:29:34.727Z,99596.94
2022-09-12T01:30:07.573Z,99598.03
2022-09-12T01:30:34.534Z,99597.72
2022-09-12T01:31:03.820Z,99600.06
2022-09-12T01:31:30.864Z,99606.94
2022-09-12T01:31:52.780Z,99605.28
2022-09-12T01:32:18.872Z,99604.03
2022-09-12T01:32:55.512Z,99598.16
2022-09-12T01:33:37.958Z,99600.41
2022-09-12T01:34:19.013Z,99605.88
2022-09-12T01:34:58.958Z,99609.25
2022-09-12T01:35:25.833Z,99610.16
2022-09-12T01:36:05.457Z,99609.84
2022-09-12T01:36:34.408Z,99604.66
2022-09-12T01:36:51.281Z,99606.31
2022-09-12T01:37:11.907Z,99600.13
2022-09-12T01:37:34.708Z,99604.47
2022-09-12T01:38:05.982Z,99605.38
2022-09-12T01:38:26.603Z,99605.69
2022-09-12T01:39:02.083Z,99604.66
2022-09-12T01:39:23.385Z,99605.09
2022-09-12T01:39:38.027Z,99605.31
2022-09-12T01:40:03.274Z,99596.56
2022-09-12T01:40:29.425Z,99607.41
2022-09-12T01:40:53.080Z,99611.63
2022-09-12T01:41:38.910Z,99605.38
2022-09-12T01:42:01.542Z,99602.78
2022-09-12T01:42:25.809Z,99604.66
2022-09-12T01:42:41.941Z,99607.94
2022-09-12T01:43:12.088Z,99606.31
2022-09-12T01:43:32.975Z,99606.19
2022-09-12T01:43:49.505Z,99610.16
2022-09-12T01:44:04.015Z,99602.38
2022-09-12T01:44:34.278Z,99610.41
2022-09-12T01:45:20.484Z,99611.09
2022-09-12T01:45:46.090Z,99602.31
2022-09-12T01:46:15.635Z,99607.72
2022-09-12T01:46:39.369Z,99606.63
2022-09-12T01:47:02.297Z,99604.00
2022-09-12T01:47:24.170Z,99604.00
2022-09-12T01:47:45.588Z,99607.41
2022-09-12T01:48:26.808Z,99607.47
2022-09-12T01:48:57.223Z,99605.38
2022-09-12T01:49:24.472Z,99608.81
2022-09-12T01:49:46.278Z,99604.34
2022-09-12T01:50:10.166Z,99601.16
2022-09-12T01:50:30.085Z,99598.84
2022-09-12T01:50:52.762Z,99602.31
2022-09-12T01:51:15.388Z,99603.75
2022-09-12T01:51:39.504Z,99600.31
2022-09-12T01:52:00.149Z,99596.69
2022-09-12T01:52:24.964Z,99600.97
2022-09-12T01:52:58.790Z,99596.50
2022-09-12T01:53:19.052Z,99599.13
2022-09-12T01:53:38.195Z,99599.13
2022-09-12T01:54:01.626Z,99599.13
2022-09-12T01:54:21.324Z,99598.28
2022-09-12T01:54:40.138Z,99598.19
2022-09-12T01:54:56.109Z,99598.28
2022-09-12T01:55:13.242Z,99592.44
2022-09-12T01:55:40.303Z,99595.84
2022-09-12T01:55:56.314Z,99591.38
2022-09-12T01:56:22.366Z,99598.28
2022-09-12T01:56:38.952Z,99600.81
2022-09-12T01:56:55.375Z,99594.63
2022-09-12T01:57:32.120Z,99592.72
2022-09-12T01:57:50.092Z,99592.72
2022-09-12T01:58:07.193Z,99594.50
2022-09-12T01:58:26.226Z,99593.88
2022-09-12T01:58:50.129Z,99595.44
2022-09-12T01:59:18.798Z,99597.19
2022-09-12T01:59:35.747Z,99599.88
2022-09-12T01:59:51.824Z,99593.84
2022-09-12T02:00:09.071Z,99602.31
2022-09-12T02:00:21.295Z,99602.06
2022-09-12T02:00:37.894Z,99596.75
2022-09-12T02:01:04.796Z,99596.94
2022-09-12T02:01:33.009Z,99590.66
2022-09-12T02:02:02.800Z,99591.69
2022-09-12T02:02:25.705Z,99595.06
2022-09-12T02:02:43.682Z,99595.22
2022-09-12T02:03:10.263Z,99594.06
2022-09-12T02:03:30.949Z,99592.19
2022-09-12T02:03:51.603Z,99589.59
2022-09-12T02:04:11.544Z,99588.63
2022-09-12T02:04:32.284Z,99591.09
2022-09-12T02:04:54.668Z,99592.91
2022-09-12T02:05:14.840Z,99597.25
2022-09-12T02:05:50.387Z,99589.34
2022-09-12T02:06:17.877Z,99592.13
2022-09-12T02:06:36.466Z,99592.91
2022-09-12T02:06:57.276Z,99589.34
2022-09-12T02:07:18.257Z,99587.47
2022-09-12T02:07:41.475Z,99588.25
2022-09-12T02:08:15.397Z,99588.09
2022-09-12T02:08:35.566Z,99581.91
2022-09-12T02:08:58.825Z,99586.25
2022-09-12T02:09:21.205Z,99584.38
2022-09-12T02:09:40.755Z,99577.38
2022-09-12T02:10:03.087Z,99584.19
2022-09-12T02:10:20.671Z,99575.69
2022-09-12T02:10:41.751Z,99580.06
2022-09-12T02:10:57.899Z,99580.06
2022-09-12T02:11:11.809Z,99579.16
2022-09-12T02:11:23.855Z,99585.22
2022-09-12T02:11:40.829Z,99583.44
2022-09-12T02:11:57.871Z,99578.19
2022-09-12T02:12:14.603Z,99582.69
2022-09-12T02:12:35.140Z,99583.63
2022-09-12T02:13:02.816Z,99575.69
2022-09-12T02:13:42.116Z,99575.06
2022-09-12T02:14:20.185Z,99583.09
2022-09-12T02:14:36.988Z,99578.72
2022-09-12T02:14:53.607Z,99579.81
2022-09-12T02:15:08.993Z,99577.00
2022-09-12T02:15:26.863Z,99577.00
2022-09-12T02:15:48.624Z,99583.19
2022-09-12T02:16:10.677Z,99577.09
2022-09-12T02:16:36.951Z,99577.88
2022-09-12T02:16:55.284Z,99582.25
2022-09-12T02:17:12.002Z,99574.56
2022-09-12T02:17:26.243Z,99576.31
2022-09-12T02:17:44.184Z,99578.16
2022-09-12T02:18:01.013Z,99574.00
2022-09-12T02:18:18.004Z,99576.31
2022-09-12T02:18:33.832Z,99582.19
2022-09-12T02:18:52.151Z,99575.09
2022-09-12T02:19:10.333Z,99574.13
2022-09-12T02:19:33.922Z,99571.50
2022-09-12T02:19:51.371Z,99570.56
2022-09-12T02:20:17.576Z,99574.97
2022-09-12T02:20:48.002Z,99581.22
2022-09-12T02:21:04.161Z,99575.22
2022-09-12T02:21:22.538Z,99577.66
2022-09-12T02:21:38.057Z,99576.06
2022-09-12T02:21:54.045Z,99575.09
2022-09-12T02:22:07.776Z,99571.72
2022-09-12T02:22:22.655Z,99569.03
2022-09-12T02:22:37.128Z,99573.25
2022-09-12T02:22:50.905Z,99570.13
2022-09-12T02:23:08.358Z,99566.91
2022-09-12T02:23:26.355Z,99571.97
2022-09-12T02:23:43.459Z,99574.59
2022-09-12T02:23:59.280Z,99571.06
2022-09-12T02:24:14.702Z,99581.34
2022-09-12T02:24:33.043Z,99578.16
2022-09-12T02:24:51.601Z,99568.00
2022-09-12T02:25:07.283Z,99569.81
2022-09-12T02:25:21.228Z,99574.91
2022-09-12T02:25:36.354Z,99576.63
2022-09-12T02:25:52.257Z,99573.25
2022-09-12T02:26:12.510Z,99574.78
2022-09-12T02:26:31.008Z,99574.59
2022-09-12T02:26:59.627Z,99575.22
2022-09-12T02:27:16.515Z,99578.63
2022-09-12T02:27:44.492Z,99576.63
2022-09-12T02:28:06.435Z,99575.59
2022-09-12T02:28:27.339Z,99566.22
2022-09-12T02:28:42.820Z,99574.78
2022-09-12T02:28:54.744Z,99578.16
2022-09-12T02:29:06.768Z,99576.44
2022-09-12T02:29:18.688Z,99575.44
2022-09-12T02:29:30.795Z,99571.06
2022-09-12T02:29:47.312Z,99576.13
2022-09-12T02:29:59.953Z,99575.22
2022-09-12T02:30:14.549Z,99574.59
2022-09-12T02:30:31.608Z,99573.56
2022-09-12T02:30:56.210Z,99573.06
2022-09-12T02:31:24.254Z,99573.00
2022-09-12T02:31:46.599Z,99576.63
2022-09-12T02:32:08.880Z,99582.16
2022-09-12T02:32:42.235Z,99575.38
2022-09-12T02:33:01.203Z,99576.56
2022-09-12T02:33:27.160Z,99570.78
2022-09-12T02:33:49.263Z,99576.88
2022-09-12T02:34:14.935Z,99572.16
2022-09-12T02:34:35.801Z,99573.84
2022-09-12T02:35:01.127Z,99570.16
2022-09-12T02:35:39.306Z,99572.00
2022-09-12T02:36:37.780Z,99574.03
2022-09-12T02:36:50.081Z,99569.47
2022-09-12T02:37:39.299Z,99575.38
2022-09-12T02:38:11.270Z,99559.53
2022-09-12T02:38:44.359Z,99565.84
2022-09-12T02:38:56.799Z,99568.47
2022-09-12T02:39:09.626Z,99566.75
2022-09-12T02:39:21.686Z,99563.56
2022-09-12T02:39:33.861Z,99575.09
2022-09-12T02:39:46.115Z,99564.78
2022-09-12T02:39:59.370Z,99569.94
2022-09-12T02:40:11.625Z,99568.94
2022-09-12T02:40:23.653Z,99567.06
2022-09-12T02:40:36.093Z,99563.56
2022-09-12T02:40:48.120Z,99568.63
2022-09-12T02:41:00.140Z,99573.06
2022-09-12T02:41:15.584Z,99571.41
2022-09-12T02:41:27.793Z,99571.47
2022-09-12T02:41:39.717Z,99568.16
2022-09-12T02:41:52.960Z,99568.25
2022-09-12T02:42:05.785Z,99569.94
2022-09-12T02:42:17.668Z,99566.88
2022-09-12T02:42:29.663Z,99568.34
2022-09-12T02:42:41.913Z,99569.25
2022-09-12T02:42:53.881Z,99570.63
2022-09-12T02:43:07.058Z,99569.56
2022-09-12T02:43:18.953Z,99572.94
2022-09-12T02:43:31.027Z,99574.66
2022-09-12T02:43:43.301Z,99565.84
2022-09-12T02:43:55.751Z,99571.09
2022-09-12T02:44:07.701Z,99568.03
2022-09-12T02:44:20.259Z,99565.56
2022-09-12T02:44:34.489Z,99567.13
2022-09-12T02:44:46.584Z,99567.78
2022-09-12T02:44:58.644Z,99570.31
2022-09-12T02:45:12.380Z,99562.03
2022-09-12T02:45:24.519Z,99562.78
2022-09-12T02:45:37.028Z,99568.19
2022-09-12T02:45:49.172Z,99560.53
2022-09-12T02:46:01.152Z,99563.09
2022-09-12T02:46:20.448Z,99566.47
2022-09-12T02:46:40.827Z,99568.16
2022-09-12T02:46:56.924Z,99558.16
2022-09-12T02:47:14.995Z,99564.16
2022-09-12T02:47:45.844Z,99565.72
2022-09-12T02:47:57.655Z,99564.16
2022-09-12T02:48:14.809Z,99558.84
2022-09-12T02:48:31.656Z,99556.88
2022-09-12T02:48:43.759Z,99562.78
2022-09-12T02:48:56.624Z,99568.03
2022-09-12T02:49:09.572Z,99563.56
2022-09-12T02:49:22.217Z,99571.41
2022-09-12T02:49:34.119Z,99564.31
2022-09-12T02:49:47.232Z,99563.56
2022-09-12T02:50:00.058Z,99566.34
2022-09-12T02:50:12.975Z,99562.78
2022-09-12T02:50:25.127Z,99566.94
2022-09-12T02:50:37.855Z,99562.53
2022-09-12T02:50:49.916Z,99566.81
2022-09-12T02:51:02.443Z,99562.03
2022-09-12T02:51:14.720Z,99570.63
2022-09-12T02:51:27.120Z,99564.50
2022-09-12T02:51:40.324Z,99564.31
2022-09-12T02:51:52.392Z,99560.81
2022-09-12T02:52:04.548Z,99563.41
2022-09-12T02:52:16.872Z,99563.56
2022-09-12T02:52:29.507Z,99563.50
2022-09-12T02:52:42.873Z,99564.19
2022-09-12T02:52:59.638Z,99559.78
2022-09-12T02:53:11.689Z,99563.09
2022-09-12T02:53:23.722Z,99563.09
2022-09-12T02:53:36.765Z,99558.63
2022-09-12T02:53:49.391Z,99569.41
2022-09-12T02:54:03.442Z,99565.16
2022-09-12T02:54:17.753Z,99567.72
2022-09-12T02:54:30.988Z,99562.47
2022-09-12T02:54:43.513Z,99560.03
2022-09-12T02:54:57.347Z,99558.31
2022-09-12T02:55:12.245Z,99561.84
2022-09-12T02:55:24.674Z,99557.31
2022-09-12T02:55:39.017Z,99561.69
2022-09-12T02:55:51.735Z,99559.84
2022-09-12T02:56:07.967Z,99563.94
2022-09-12T02:56:28.956Z,99567.19
2022-09-12T02:56:43.596Z,99560.94
2022-09-12T02:56:55.513Z,99566.19
2022-09-12T02:57:22.544Z,99567.13
2022-09-12T02:57:35.037Z,99562.19
2022-09-12T02:57:46.937Z,99558.56
2022-09-12T02:58:02.027Z,99561.88
2022-09-12T02:58:20.713Z,99567.19
2022-09-12T02:58:33.080Z,99558.50
2022-09-12T02:58:45.552Z,99559.16
2022-09-12T02:59:08.204Z,99559.09
2022-09-12T02:59:22.939Z,99560.09
2022-09-12T02:59:34.851Z,99559.94
2022-09-12T02:59:48.211Z,99557.41
2022-09-12T03:00:01.382Z,99559.09
2022-09-12T03:00:14.080Z,99560.81
2022-09-12T03:00:27.099Z,99564.50
2022-09-12T03:01:06.980Z,99554.88
2022-09-12T03:01:36.636Z,99559.09
2022-09-12T03:02:03.545Z,99557.25
2022-09-12T03:02:41.611Z,99561.50
2022-09-12T03:03:02.960Z,99553.25
2022-09-12T03:03:33.183Z,99560.19
2022-09-12T03:03:59.991Z,99557.63
2022-09-12T03:04:17.845Z,99561.25
2022-09-12T03:04:57.896Z,99559.09
2022-09-12T03:05:18.896Z,99556.34
2022-09-12T03:05:40.136Z,99550.16
2022-09-12T03:06:00.291Z,99555.56
2022-09-12T03:06:48.743Z,99552.63
2022-09-12T03:07:03.339Z,99554.81
2022-09-12T03:07:42.440Z,99554.81
2022-09-12T03:08:21.660Z,99559.09
2022-09-12T03:08:39.389Z,99552.19
2022-09-12T03:09:00.189Z,99558.41
2022-09-12T03:09:30.275Z,99561.19
2022-09-12T03:09:54.272Z,99559.09
2022-09-12T03:10:08.114Z,99547.72
2022-09-12T03:10:51.924Z,99554.19
2022-09-12T03:11:11.050Z,99556.47
2022-09-12T03:11:47.009Z,99553.88
2022-09-12T03:12:19.315Z,99555.56
2022-09-12T03:13:00.383Z,99553.72
2022-09-12T03:13:30.197Z,99559.41
2022-09-12T03:14:16.105Z,99556.41
2022-09-12T03:14:35.585Z,99557.72
2022-09-12T03:14:53.342Z,99555.25
2022-09-12T03:15:17.235Z,99565.16
2022-09-12T03:15:37.077Z,99559.69
2022-09-12T03:16:28.203Z,99564.63
2022-09-12T03:17:22.211Z,99555.88
2022-09-12T03:18:06.693Z,99555.56
2022-09-12T03:18:42.027Z,99559.78
2022-09-12T03:19:06.320Z,99551.88
2022-09-12T03:19:42.360Z,99552.00
2022-09-12T03:20:09.472Z,99561.56
2022-09-12T03:20:33.539Z,99557.25
2022-09-12T03:20:58.213Z,99556.34
2022-09-12T03:21:10.170Z,99558.19
2022-09-12T03:21:40.388Z,99556.41
2022-09-12T03:21:54.863Z,99558.25
2022-09-12T03:22:13.385Z,99554.34
2022-09-12T03:22:33.340Z,99558.00
2022-09-12T03:22:59.440Z,99558.72
2022-09-12T03:23:36.218Z,99550.78
2022-09-12T03:23:54.096Z,99560.25
2022-09-12T03:24:21.063Z,99561.13
2022-09-12T03:24:38.064Z,99559.25
2022-09-12T03:25:17.119Z,99557.31
2022-09-12T03:25:53.202Z,99554.63
2022-09-12T03:26:18.227Z,99554.63
2022-09-12T03:26:40.158Z,99562.53
2022-09-12T03:27:00.831Z,99561.78
2022-09-12T03:27:45.821Z,99554.03
2022-09-12T03:28:08.002Z,99554.94
2022-09-12T03:28:22.076Z,99552.19
2022-09-12T03:28:35.742Z,99555.56
2022-09-12T03:28:49.409Z,99555.41
2022-09-12T03:29:03.483Z,99554.50
2022-09-12T03:29:16.126Z,99556.16
2022-09-12T03:29:28.940Z,99550.84
2022-09-12T03:29:43.349Z,99553.41
2022-09-12T03:29:56.236Z,99551.03
2022-09-12T03:30:10.823Z,99548.50
2022-09-12T03:30:28.498Z,99548.50
2022-09-12T03:30:42.737Z,99545.56